createdAt,value
2018-04-07T00:01:54.382Z,55.30
2018-04-07T00:04:23.776Z,54.60
2018-04-07T00:06:53.261Z,54.30
2018-04-07T00:09:22.474Z,54.40
2018-04-07T00:11:52.479Z,54.40
2018-04-07T00:14:21.780Z,54.40
2018-04-07T00:16:51.008Z,54.40
2018-04-07T00:19:21.007Z,55.00
2018-04-07T00:21:51.159Z,54.90
2018-04-07T00:24:20.556Z,54.90
2018-04-07T00:26:49.827Z,55.10
2018-04-07T00:29:19.990Z,55.60
2018-04-07T00:31:49.368Z,55.60
2018-04-07T00:34:18.695Z,56.00
2018-04-07T00:36:48.643Z,58.10
2018-04-07T00:39:17.844Z,58.00
2018-04-07T00:41:47.074Z,56.60
2018-04-07T00:44:17.261Z,57.60
2018-04-07T00:46:47.276Z,57.60
2018-04-07T00:49:16.687Z,57.30
2018-04-07T00:51:45.896Z,57.60
2018-04-07T00:54:15.235Z,57.70
2018-04-07T00:56:44.500Z,57.90
2018-04-07T00:59:13.707Z,59.20
2018-04-07T01:01:42.975Z,58.20
2018-04-07T01:04:12.179Z,58.30
2018-04-07T01:06:41.469Z,59.20
2018-04-07T01:09:10.877Z,60.00
2018-04-07T01:11:40.038Z,60.10
2018-04-07T01:14:09.378Z,60.10
2018-04-07T01:16:38.647Z,60.70
2018-04-07T01:19:07.974Z,60.50
2018-04-07T01:21:37.146Z,59.90
2018-04-07T01:24:06.338Z,61.40
2018-04-07T01:26:36.309Z,62.60
2018-04-07T01:29:05.600Z,62.70
2018-04-07T01:31:34.813Z,61.70
2018-04-07T01:34:04.029Z,62.00
2018-04-07T01:36:33.312Z,63.50
2018-04-07T01:39:02.517Z,63.00
2018-04-07T01:41:31.984Z,63.80
2018-04-07T01:44:01.180Z,62.60
2018-04-07T01:46:30.472Z,65.30
2018-04-07T01:48:59.779Z,64.70
2018-04-07T01:51:29.085Z,65.10
2018-04-07T01:53:58.380Z,64.70
2018-04-07T01:56:27.681Z,65.30
2018-04-07T01:58:57.033Z,64.50
2018-04-07T02:01:26.311Z,65.10
2018-04-07T02:03:56.402Z,65.60
2018-04-07T02:06:25.907Z,65.40
2018-04-07T02:08:55.077Z,67.40
2018-04-07T02:11:24.257Z,66.60
2018-04-07T02:13:53.504Z,66.00
2018-04-07T02:16:22.799Z,65.80
2018-04-07T02:18:52.102Z,65.60
2018-04-07T02:21:21.285Z,68.90
2018-04-07T02:23:50.485Z,67.50
2018-04-07T02:26:19.602Z,66.50
2018-04-07T02:28:48.819Z,67.80
2018-04-07T02:31:17.972Z,67.90
2018-04-07T02:33:47.259Z,68.00
2018-04-07T02:36:16.556Z,69.10
2018-04-07T02:38:45.748Z,68.10
2018-04-07T02:41:14.931Z,67.90
2018-04-07T02:43:45.099Z,68.30
2018-04-07T02:46:14.294Z,68.30
2018-04-07T02:48:43.540Z,68.70
2018-04-07T02:51:12.798Z,69.20
2018-04-07T02:53:42.186Z,68.20
2018-04-07T02:56:12.052Z,68.80
2018-04-07T02:58:41.302Z,68.70
2018-04-07T03:01:10.602Z,70.40
2018-04-07T03:03:39.941Z,69.50
2018-04-07T03:06:09.148Z,70.30
2018-04-07T03:08:38.484Z,70.30
2018-04-07T03:11:07.764Z,71.10
2018-04-07T03:13:37.028Z,70.50
2018-04-07T03:16:06.342Z,70.60
2018-04-07T03:18:35.620Z,70.30
2018-04-07T03:21:04.981Z,70.10
2018-04-07T03:23:34.260Z,70.30
2018-04-07T03:26:04.334Z,70.60
2018-04-07T03:28:33.643Z,71.30
2018-04-07T03:31:02.868Z,71.60
2018-04-07T03:33:32.087Z,73.50
2018-04-07T03:36:01.369Z,73.30
2018-04-07T03:38:30.644Z,73.50
2018-04-07T03:41:01.934Z,72.70
2018-04-07T03:43:31.208Z,71.20
2018-04-07T03:46:00.437Z,72.20
2018-04-07T03:48:29.701Z,72.80
2018-04-07T03:50:58.992Z,73.40
2018-04-07T03:53:28.969Z,71.80
2018-04-07T03:55:58.217Z,71.80
2018-04-07T03:58:28.268Z,70.90
2018-04-07T04:00:57.540Z,70.80
2018-04-07T04:03:26.787Z,70.50
2018-04-07T04:05:56.830Z,70.60
2018-04-07T04:08:26.840Z,70.50
2018-04-07T04:10:56.142Z,70.40
2018-04-07T04:13:25.420Z,69.80
2018-04-07T04:15:54.687Z,69.70
2018-04-07T04:18:24.749Z,70.00
2018-04-07T04:20:53.961Z,69.90
2018-04-07T04:23:23.203Z,70.00
2018-04-07T04:25:52.512Z,70.80
2018-04-07T04:28:21.776Z,71.50
2018-04-07T04:30:51.108Z,71.40
2018-04-07T04:33:20.500Z,71.40
2018-04-07T04:35:49.871Z,72.40
2018-04-07T04:38:19.220Z,73.10
2018-04-07T04:40:48.557Z,73.90
2018-04-07T04:43:17.912Z,74.00
2018-04-07T04:45:48.049Z,72.40
2018-04-07T04:48:21.267Z,72.20
2018-04-07T04:50:50.841Z,71.60
2018-04-07T04:53:20.156Z,71.70
2018-04-07T04:55:49.534Z,71.70
2018-04-07T04:58:19.671Z,71.60
2018-04-07T05:00:49.236Z,71.60
2018-04-07T05:03:19.311Z,71.10
2018-04-07T05:05:48.616Z,70.70
2018-04-07T05:08:18.221Z,70.80
2018-04-07T05:10:47.813Z,72.20
2018-04-07T05:13:17.174Z,71.20
2018-04-07T05:15:46.469Z,70.40
2018-04-07T05:18:21.535Z,71.00
2018-04-07T05:20:50.859Z,71.60
2018-04-07T05:23:20.211Z,71.50
2018-04-07T05:25:49.503Z,70.40
2018-04-07T05:28:18.843Z,70.20
2018-04-07T05:30:48.206Z,70.00
2018-04-07T05:33:20.253Z,69.50
2018-04-07T05:35:49.562Z,69.10
2018-04-07T05:38:18.840Z,68.30
2018-04-07T05:40:48.197Z,68.70
2018-04-07T05:43:17.556Z,69.40
2018-04-07T05:45:47.004Z,68.80
2018-04-07T05:48:17.740Z,68.30
2018-04-07T05:50:48.015Z,71.20
2018-04-07T05:53:18.974Z,69.10
2018-04-07T05:55:48.279Z,69.00
2018-04-07T05:58:17.574Z,67.60
2018-04-07T06:00:47.408Z,64.80
2018-04-07T06:03:17.172Z,68.10
2018-04-07T06:05:46.264Z,68.00
2018-04-07T06:08:15.464Z,68.70
2018-04-07T06:10:44.749Z,64.60
2018-04-07T06:13:13.984Z,63.60
2018-04-07T06:15:43.462Z,62.40
2018-04-07T06:18:12.868Z,61.90
2018-04-07T06:20:42.178Z,60.80
2018-04-07T06:23:11.443Z,61.10
2018-04-07T06:25:40.992Z,61.60
2018-04-07T06:28:10.233Z,58.80
2018-04-07T06:30:39.650Z,58.30
2018-04-07T06:33:09.305Z,59.10
2018-04-07T06:35:39.301Z,58.40
2018-04-07T06:38:09.413Z,56.60
2018-04-07T06:40:38.635Z,56.60
2018-04-07T06:43:08.669Z,59.50
2018-04-07T06:45:38.751Z,56.70
2018-04-07T06:48:11.867Z,56.70
2018-04-07T06:50:42.154Z,57.90
2018-04-07T06:53:11.469Z,57.90
2018-04-07T06:55:40.841Z,57.50
2018-04-07T06:58:10.187Z,56.80
2018-04-07T07:00:39.504Z,57.10
2018-04-07T07:03:14.321Z,55.80
2018-04-07T07:05:44.387Z,55.70
2018-04-07T07:08:17.463Z,55.60
2018-04-07T07:10:47.029Z,56.20
2018-04-07T07:13:16.193Z,51.80
2018-04-07T07:15:45.521Z,54.80
2018-04-07T07:18:18.547Z,52.10
2018-04-07T07:20:47.531Z,53.80
2018-04-07T07:23:17.513Z,50.20
2018-04-07T07:25:47.068Z,50.20
2018-04-07T07:28:16.320Z,48.90
2018-04-07T07:30:45.579Z,48.90
2018-04-07T07:33:19.733Z,48.70
2018-04-07T07:35:49.234Z,48.70
2018-04-07T07:38:19.450Z,48.10
2018-04-07T07:40:48.852Z,48.00
2018-04-07T07:43:18.360Z,49.20
2018-04-07T07:45:47.705Z,46.60
2018-04-07T07:48:16.980Z,44.60
2018-04-07T07:50:47.073Z,44.80
2018-04-07T07:53:16.380Z,44.70
2018-04-07T07:55:45.653Z,43.90
2018-04-07T07:58:14.888Z,43.30
2018-04-07T08:00:44.162Z,44.10
2018-04-07T08:03:18.917Z,43.90
2018-04-07T08:05:48.208Z,45.30
2018-04-07T08:08:17.459Z,43.60
2018-04-07T08:10:46.798Z,43.70
2018-04-07T08:13:16.182Z,41.80
2018-04-07T08:15:45.396Z,41.70
2018-04-07T08:18:14.662Z,43.20
2018-04-07T08:20:43.973Z,42.80
2018-04-07T08:23:13.135Z,40.60
2018-04-07T08:25:42.386Z,41.90
2018-04-07T08:28:11.797Z,41.40
2018-04-07T08:30:40.981Z,41.30
2018-04-07T08:33:11.141Z,40.30
2018-04-07T08:35:44.201Z,40.00
2018-04-07T08:38:13.502Z,39.90
2018-04-07T08:40:42.841Z,39.20
2018-04-07T08:43:12.880Z,37.20
2018-04-07T08:45:42.107Z,37.20
2018-04-07T08:48:12.268Z,36.80
2018-04-07T08:50:42.358Z,36.60
2018-04-07T08:53:11.542Z,36.60
2018-04-07T08:55:40.807Z,36.70
2018-04-07T08:58:10.136Z,35.40
2018-04-07T09:00:39.358Z,35.30
2018-04-07T09:03:12.038Z,36.60
2018-04-07T09:05:41.232Z,36.60
2018-04-07T09:08:10.422Z,34.90
2018-04-07T09:10:43.403Z,38.30
2018-04-07T09:13:12.651Z,35.30
2018-04-07T09:15:42.314Z,34.20
2018-04-07T09:18:18.128Z,36.60
2018-04-07T09:20:47.479Z,33.20
2018-04-07T09:23:16.672Z,31.90
2018-04-07T09:25:46.760Z,32.00
2018-04-07T09:28:16.916Z,32.10
2018-04-07T09:30:47.027Z,32.70
2018-04-07T09:33:16.333Z,32.80
2018-04-07T09:35:45.630Z,33.10
2018-04-07T09:38:14.849Z,30.90
2018-04-07T09:40:44.149Z,30.30
2018-04-07T09:43:13.530Z,31.10
2018-04-07T09:45:42.735Z,30.30
2018-04-07T09:48:12.039Z,29.00
2018-04-07T09:50:43.355Z,29.80
2018-04-07T09:53:12.682Z,29.90
2018-04-07T09:55:41.943Z,31.00
2018-04-07T09:58:11.925Z,28.20
2018-04-07T10:00:46.762Z,28.20
2018-04-07T10:03:26.058Z,28.40
2018-04-07T10:05:55.302Z,29.40
2018-04-07T10:08:24.560Z,30.60
2018-04-07T10:10:53.958Z,29.60
2018-04-07T10:13:23.368Z,28.80
2018-04-07T10:15:52.650Z,28.20
2018-04-07T10:18:23.400Z,28.00
2018-04-07T10:20:55.543Z,28.00
2018-04-07T10:23:24.701Z,30.00
2018-04-07T10:25:53.969Z,30.30
2018-04-07T10:28:23.359Z,28.30
2018-04-07T10:30:53.512Z,27.60
2018-04-07T10:33:22.695Z,27.60
2018-04-07T10:35:53.846Z,27.00
2018-04-07T10:38:23.052Z,27.50
2018-04-07T10:40:53.104Z,26.70
2018-04-07T10:43:22.346Z,26.70
2018-04-07T10:45:51.582Z,26.60
2018-04-07T10:48:25.145Z,26.90
2018-04-07T10:50:54.381Z,26.30
2018-04-07T10:53:23.634Z,27.30
2018-04-07T10:55:52.832Z,26.80
2018-04-07T10:58:22.133Z,27.10
2018-04-07T11:00:52.140Z,26.70
2018-04-07T11:03:21.887Z,26.60
2018-04-07T11:05:51.988Z,27.60
2018-04-07T11:08:21.193Z,27.60
2018-04-07T11:10:50.473Z,26.90
2018-04-07T11:13:19.667Z,27.50
2018-04-07T11:15:48.904Z,26.90
2018-04-07T11:18:18.880Z,26.00
2018-04-07T11:20:48.307Z,26.00
2018-04-07T11:23:17.758Z,26.50
2018-04-07T11:25:47.811Z,26.00
2018-04-07T11:28:17.009Z,26.50
2018-04-07T11:30:46.189Z,26.90
2018-04-07T11:33:22.161Z,26.70
2018-04-07T11:35:51.393Z,26.60
2018-04-07T11:38:21.409Z,26.90
2018-04-07T11:40:50.576Z,26.90
2018-04-07T11:43:23.675Z,27.00
2018-04-07T11:45:52.948Z,27.30
2018-04-07T11:48:32.818Z,26.90
2018-04-07T11:51:02.026Z,26.80
2018-04-07T11:53:31.412Z,26.60
2018-04-07T11:56:00.709Z,26.70
2018-04-07T11:58:29.907Z,27.00
2018-04-07T12:01:02.743Z,26.00
2018-04-07T12:03:31.990Z,26.10
2018-04-07T12:06:02.208Z,26.20
2018-04-07T12:08:31.414Z,25.60
2018-04-07T12:11:00.709Z,25.40
2018-04-07T12:13:30.113Z,25.30
2018-04-07T12:16:01.288Z,24.90
2018-04-07T12:18:30.575Z,25.60
2018-04-07T12:20:59.803Z,24.80
2018-04-07T12:23:29.770Z,25.70
2018-04-07T12:25:58.993Z,25.80
2018-04-07T12:28:28.273Z,26.10
2018-04-07T12:30:57.668Z,25.80
2018-04-07T12:33:26.902Z,24.50
2018-04-07T12:35:56.897Z,25.00
2018-04-07T12:38:26.387Z,24.90
2018-04-07T12:40:55.835Z,25.30
2018-04-07T12:43:28.565Z,24.30
2018-04-07T12:45:57.873Z,25.40
2018-04-07T12:48:27.238Z,23.70
2018-04-07T12:50:57.261Z,24.30
2018-04-07T12:53:26.539Z,24.30
2018-04-07T12:55:55.696Z,22.80
2018-04-07T12:58:25.033Z,23.60
2018-04-07T13:00:54.969Z,24.00
2018-04-07T13:03:24.204Z,24.10
2018-04-07T13:05:53.405Z,23.70
2018-04-07T13:08:22.916Z,25.10
2018-04-07T13:10:55.509Z,23.30
2018-04-07T13:13:24.786Z,23.20
2018-04-07T13:15:53.984Z,23.80
2018-04-07T13:18:23.372Z,23.70
2018-04-07T13:20:52.684Z,23.30
2018-04-07T13:23:21.937Z,22.70
2018-04-07T13:25:51.244Z,21.90
2018-04-07T13:28:20.477Z,22.20
2018-04-07T13:30:49.695Z,21.70
2018-04-07T13:33:26.033Z,21.80
2018-04-07T13:35:55.220Z,21.70
2018-04-07T13:38:24.463Z,22.00
2018-04-07T13:40:53.697Z,22.20
2018-04-07T13:43:23.038Z,22.70
2018-04-07T13:45:52.180Z,22.90
2018-04-07T13:48:21.380Z,22.90
2018-04-07T13:50:50.571Z,22.70
2018-04-07T13:53:20.553Z,22.70
2018-04-07T13:55:49.814Z,22.70
2018-04-07T13:58:19.026Z,22.50
2018-04-07T14:00:48.297Z,22.20
2018-04-07T14:03:23.087Z,23.20
2018-04-07T14:05:52.325Z,23.20
2018-04-07T14:08:21.583Z,22.60
2018-04-07T14:10:50.809Z,22.60
2018-04-07T14:13:20.016Z,23.70
2018-04-07T14:15:49.988Z,22.70
2018-04-07T14:18:19.174Z,22.60
2018-04-07T14:20:48.489Z,22.50
2018-04-07T14:23:17.636Z,22.10
2018-04-07T14:25:46.949Z,22.80
2018-04-07T14:28:16.130Z,22.40
2018-04-07T14:30:45.246Z,22.50
2018-04-07T14:33:20.147Z,22.50
2018-04-07T14:35:49.345Z,22.50
2018-04-07T14:38:18.572Z,23.40
2018-04-07T14:40:47.890Z,23.20
2018-04-07T14:43:17.246Z,23.10
2018-04-07T14:45:47.211Z,23.30
2018-04-07T14:48:19.313Z,23.40
2018-04-07T14:50:49.261Z,22.50
2018-04-07T14:53:18.514Z,22.50
2018-04-07T14:55:47.760Z,23.00
2018-04-07T14:58:17.045Z,22.40
2018-04-07T15:00:46.299Z,22.90
2018-04-07T15:03:20.473Z,22.70
2018-04-07T15:05:50.413Z,21.90
2018-04-07T15:08:19.624Z,21.90
2018-04-07T15:10:48.866Z,21.90
2018-04-07T15:13:18.880Z,23.20
2018-04-07T15:15:48.872Z,23.40
2018-04-07T15:18:18.887Z,23.00
2018-04-07T15:20:48.089Z,23.70
2018-04-07T15:23:17.365Z,23.40
2018-04-07T15:25:46.650Z,23.40
2018-04-07T15:28:15.877Z,23.40
2018-04-07T15:30:46.101Z,24.30
2018-04-07T15:33:15.852Z,24.30
2018-04-07T15:35:45.914Z,24.40
2018-04-07T15:38:15.154Z,24.30
2018-04-07T15:40:44.519Z,24.80
2018-04-07T15:43:17.303Z,24.70
2018-04-07T15:45:46.556Z,24.80
2018-04-07T15:48:20.717Z,24.60
2018-04-07T15:50:50.033Z,24.60
2018-04-07T15:53:19.267Z,24.50
2018-04-07T15:55:48.608Z,24.50
2018-04-07T15:58:17.886Z,24.20
2018-04-07T16:00:47.142Z,24.20
2018-04-07T16:03:20.791Z,25.90
2018-04-07T16:05:50.011Z,25.90
2018-04-07T16:08:19.257Z,25.40
2018-04-07T16:10:48.496Z,25.50
2018-04-07T16:13:17.717Z,25.80
2018-04-07T16:15:46.891Z,25.80
2018-04-07T16:18:16.118Z,26.10
2018-04-07T16:20:47.288Z,26.20
2018-04-07T16:23:17.298Z,26.10
2018-04-07T16:25:47.270Z,26.40
2018-04-07T16:28:17.402Z,26.40
2018-04-07T16:30:46.677Z,26.40
2018-04-07T16:33:21.640Z,26.30
2018-04-07T16:35:50.950Z,26.70
2018-04-07T16:38:20.152Z,27.60
2018-04-07T16:40:49.432Z,27.40
2018-04-07T16:43:18.694Z,26.90
2018-04-07T16:45:48.086Z,27.10
2018-04-07T16:48:22.716Z,27.40
2018-04-07T16:50:52.226Z,27.40
2018-04-07T16:53:21.572Z,27.30
2018-04-07T16:55:50.961Z,27.30
2018-04-07T16:58:20.388Z,27.20
2018-04-07T17:00:49.707Z,28.40
2018-04-07T17:03:19.706Z,28.00
2018-04-07T17:05:48.913Z,28.00
2018-04-07T17:08:18.177Z,28.00
2018-04-07T17:10:47.174Z,27.80
2018-04-07T17:13:16.575Z,27.70
2018-04-07T17:15:45.856Z,27.90
2018-04-07T17:18:21.132Z,28.00
2018-04-07T17:20:50.377Z,28.20
2018-04-07T17:23:19.659Z,28.80
2018-04-07T17:25:52.536Z,29.40
2018-04-07T17:28:21.785Z,29.30
2018-04-07T17:30:54.074Z,30.00
2018-04-07T17:33:23.252Z,30.00
2018-04-07T17:35:52.467Z,31.20
2018-04-07T17:38:21.751Z,31.70
2018-04-07T17:40:51.066Z,31.50
2018-04-07T17:43:20.345Z,31.60
2018-04-07T17:45:49.573Z,31.40
2018-04-07T17:48:18.858Z,31.70
2018-04-07T17:50:48.056Z,31.90
2018-04-07T17:53:17.269Z,31.70
2018-04-07T17:55:46.554Z,31.80
2018-04-07T17:58:15.853Z,31.70
2018-04-07T18:00:45.153Z,33.00
2018-04-07T18:03:16.398Z,33.80
2018-04-07T18:05:45.611Z,34.10
2018-04-07T18:08:14.947Z,35.20
2018-04-07T18:10:44.481Z,35.30
2018-04-07T18:13:13.528Z,36.20
2018-04-07T18:15:42.797Z,36.20
2018-04-07T18:18:12.009Z,36.60
2018-04-07T18:20:41.307Z,37.30
2018-04-07T18:23:12.513Z,37.30
2018-04-07T18:25:41.783Z,38.00
2018-04-07T18:28:15.850Z,38.10
2018-04-07T18:30:49.055Z,39.50
2018-04-07T18:33:20.409Z,39.00
2018-04-07T18:35:49.591Z,39.40
2018-04-07T18:38:18.897Z,39.50
2018-04-07T18:40:48.191Z,40.10
2018-04-07T18:43:17.496Z,40.40
2018-04-07T18:45:46.917Z,40.70
2018-04-07T18:48:25.165Z,41.20
2018-04-07T18:50:54.397Z,41.10
2018-04-07T18:53:23.715Z,41.70
2018-04-07T18:55:53.206Z,41.70
2018-04-07T18:58:22.440Z,41.90
2018-04-07T19:00:52.520Z,42.80
2018-04-07T19:03:27.558Z,42.60
2018-04-07T19:05:56.910Z,43.10
2018-04-07T19:08:27.079Z,43.70
2018-04-07T19:10:56.483Z,43.70
2018-04-07T19:13:25.754Z,44.30
2018-04-07T19:15:54.743Z,44.60
2018-04-07T19:18:24.890Z,45.10
2018-04-07T19:20:53.908Z,45.70
2018-04-07T19:23:22.904Z,46.40
2018-04-07T19:25:52.158Z,46.90
2018-04-07T19:28:21.400Z,47.30
2018-04-07T19:30:50.688Z,47.60
2018-04-07T19:33:20.780Z,48.40
2018-04-07T19:35:51.723Z,49.10
2018-04-07T19:38:21.097Z,49.10
2018-04-07T19:40:50.439Z,49.80
2018-04-07T19:43:19.657Z,50.30
2018-04-07T19:45:49.230Z,51.10
2018-04-07T19:48:20.917Z,51.90
2018-04-07T19:50:50.208Z,51.80
2018-04-07T19:53:19.550Z,52.40
2018-04-07T19:55:49.531Z,52.90
2018-04-07T19:58:18.830Z,52.90
2018-04-07T20:00:48.117Z,53.20
2018-04-07T20:03:17.302Z,53.40
2018-04-07T20:05:46.607Z,53.70
2018-04-07T20:08:16.010Z,54.20
2018-04-07T20:10:45.307Z,54.60
2018-04-07T20:13:14.670Z,54.50
2018-04-07T20:15:43.862Z,54.60
2018-04-07T20:18:19.553Z,55.70
2018-04-07T20:20:48.968Z,55.60
2018-04-07T20:23:18.217Z,56.20
2018-04-07T20:25:47.787Z,56.20
2018-04-07T20:28:17.489Z,56.20
2018-04-07T20:30:46.788Z,56.60
2018-04-07T20:33:19.970Z,56.60
2018-04-07T20:35:51.282Z,56.90
2018-04-07T20:38:20.486Z,56.90
2018-04-07T20:40:56.586Z,56.60
2018-04-07T20:43:26.846Z,56.50
2018-04-07T20:45:56.220Z,56.50
2018-04-07T20:48:25.522Z,56.30
2018-04-07T20:50:55.636Z,56.80
2018-04-07T20:53:24.956Z,56.80
2018-04-07T20:55:54.374Z,57.00
2018-04-07T20:58:23.731Z,57.00
2018-04-07T21:00:53.855Z,58.00
2018-04-07T21:03:23.200Z,57.90
2018-04-07T21:05:52.280Z,58.10
2018-04-07T21:08:22.289Z,58.20
2018-04-07T21:10:51.539Z,58.10
2018-04-07T21:13:21.683Z,58.40
2018-04-07T21:15:51.028Z,58.40
2018-04-07T21:18:21.044Z,58.60
2018-04-07T21:20:50.304Z,59.00
2018-04-07T21:23:19.578Z,58.80
2018-04-07T21:25:49.778Z,59.50
2018-04-07T21:28:19.345Z,59.40
2018-04-07T21:30:48.685Z,59.80
2018-04-07T21:33:32.984Z,60.30
2018-04-07T21:36:02.597Z,60.40
2018-04-07T21:38:31.983Z,61.10
2018-04-07T21:41:01.369Z,61.10
2018-04-07T21:43:30.626Z,61.80
2018-04-07T21:45:59.926Z,62.00
2018-04-07T21:48:29.996Z,62.40
2018-04-07T21:50:59.345Z,62.40
2018-04-07T21:53:28.714Z,62.60
2018-04-07T21:55:57.959Z,63.40
2018-04-07T21:58:28.028Z,63.50
2018-04-07T22:00:57.378Z,63.50
2018-04-07T22:03:26.665Z,63.60
2018-04-07T22:05:56.054Z,64.00
2018-04-07T22:08:26.150Z,64.40
2018-04-07T22:10:55.385Z,64.30
2018-04-07T22:13:24.674Z,65.00
2018-04-07T22:15:53.916Z,64.90
2018-04-07T22:18:23.270Z,65.20
2018-04-07T22:20:52.487Z,65.70
2018-04-07T22:23:22.028Z,66.40
2018-04-07T22:25:51.662Z,66.80
2018-04-07T22:28:20.913Z,66.80
2018-04-07T22:30:49.935Z,66.90
2018-04-07T22:33:19.638Z,68.30
2018-04-07T22:35:48.985Z,68.60
2018-04-07T22:38:18.467Z,69.00
2018-04-07T22:40:47.556Z,69.40
2018-04-07T22:43:16.808Z,69.40
2018-04-07T22:45:46.046Z,67.70
2018-04-07T22:48:15.259Z,67.40
2018-04-07T22:50:44.662Z,67.10
2018-04-07T22:53:13.986Z,67.70
2018-04-07T22:55:43.362Z,67.90
2018-04-07T22:58:12.585Z,69.20
2018-04-07T23:00:42.781Z,69.80
2018-04-07T23:03:13.210Z,69.80
2018-04-07T23:05:42.691Z,70.00
2018-04-07T23:08:11.918Z,70.40
2018-04-07T23:10:41.085Z,70.80
2018-04-07T23:13:10.336Z,71.00
2018-04-07T23:15:40.351Z,71.70
2018-04-07T23:18:10.359Z,71.70
2018-04-07T23:20:39.586Z,71.80
2018-04-07T23:23:09.719Z,72.90
2018-04-07T23:25:39.673Z,72.90
2018-04-07T23:28:08.902Z,72.70
2018-04-07T23:30:39.092Z,74.10
2018-04-07T23:33:09.799Z,74.10
2018-04-07T23:35:38.828Z,74.00
2018-04-07T23:38:08.225Z,74.20
2018-04-07T23:40:37.439Z,74.10
2018-04-07T23:43:06.925Z,74.60
2018-04-07T23:45:36.223Z,75.00
2018-04-07T23:48:05.470Z,75.30
2018-04-07T23:50:35.399Z,75.60
2018-04-07T23:53:04.636Z,76.10
2018-04-07T23:55:34.026Z,76.30
2018-04-07T23:58:03.258Z,76.30
